Relevés horaires Beauvechain (Belgique)


Relevés horaires à Beauvechain - Samedi 08 Févr. 2020
Heure UTC1 Température [°C] Vent [km/h] Hum. [%] Pres.4 [hPa] Visi. [Km] Nébu. [octa] Préc.5 [mm] Cond.
2m. Res. Ros. Dir.2 Vit. Moy. Raf.3
23:00 7.2 5.4 6.0 S 9.3 -- 13.0 92 1019.2(-1.6/3h) 13 -- -- --
22:00 7.3 6 6.2 S 7.4 -- 9.3 93 1019.8(-0.8/3h) 10 -- -- --
21:00 7.1 7.1 6.3 SSO 3.7 -- 13.0 95 1020.7(0.7/3h) 7 -- -- --
20:00 8.0 7.3 6.9 SO 5.6 -- 11.1 93 1020.8(0.5/3h) 13 -- -- --
19:00 8.0 7.3 6.9 OSO 5.6 -- 13.0 93 1020.7(0.6/3h) 14 -- -- --
18:00 8.3 6.7 6.8 S 9.3 -- 16.7 90 1020(0.3/3h) 16 -- 0.9/12h
NA
17:00 8.3 7.1 7.2 SSO 7.4 -- 11.1 93 1020.3(0.7/3h) 9 -- -- Il y a de la pluie faible et continue à la station au moment de l'observation
16:00 9.1 8.6 7.4 SO 5.6 -- 13.0 89 1020(0.1/3h) 7 -- -- Il y a de la pluie faible et continue à la station au moment de l'observation
15:00 10.1 9.3 6.3 SO 7.4 -- 14.8 77 1019.6(-0.1/3h) 20 -- -- --
14:00 10.1 9.3 6.2 SSO 7.4 -- 13.0 77 1019.6(-0.3/3h) 20 -- -- --
13:00 10.3 9.1 5.9 SSO 9.3 -- 14.8 74 1019.7(0.0/3h) 20 -- -- --
12:00 10.3 8.5 5.5 SSO 13.0 -- 18.5 72 1019.7(0.0/3h) 20 -- -- --
11:00 10.4 8.9 5.2 SSO 11.1 -- 18.5 70 1019.8(0.4/3h) 20 -- -- --
10:00 9.3 7.9 4.6 S 9.3 -- 13.0 72 1019.7(0.5/3h) 20 -- -- --
09:00 8.2 7 4.0 S 7.4 -- 11.1 75 1019.8(0.8/3h) 20 -- -- --
08:00 7.8 6.6 3.9 S 7.4 -- 11.1 76 1019.6(0.3/3h) 20 -- -- --
07:00 7.5 6.2 3.7 S 7.4 -- 11.1 77 1019.2(0.0/3h) 20 -- -- --
06:00 7.3 6 3.3 SSO 7.4 -- 14.8 76 1019.1(-0.3/3h) 20 -- -- --
05:00 6.9 5.5 3.0 S 7.4 -- 14.8 76 1019.2(-0.9/3h) 20 -- -- --
04:00 6.7 4.8 2.7 S 9.3 -- 13.0 76 1019.3(-0.8/3h) 20 -- -- --
03:00 6.2 4.2 2.1 S 9.3 -- 13.0 75 1019.5(-0.9/3h) 20 -- -- --
02:00 5.6 3.5 1.2 S 9.3 -- 13.0 73 1020.2(0.0/3h) 20 -- -- --
01:00 5.0 3.3 0.2 SSO 7.4 -- 11.1 71 1020.2(-0.5/3h) 20 -- -- --
00:00 5.0 3.3 -0.6 S 7.4 -- 13.0 67 1020.6(-0.6/3h) 20 -- -- --

1 Coordinated Universal Time. Actuellement il est 18:00 locale et 16:00 UTC.

2 Le vent souffle depuis la direction indiquée vers la direction oposée.

3 Les rafales max. sont disponible 40 min après l'heure du relevé.

4 Pour les stations d'altitude (plus de 600m) le géopotentiel du niveau le plus proche de la pression obligatoire est indiqué.

5 Les stations disposant d'un diffuseur peuvent indiquer "trace". Cela signifie que des précipitations ont touchés le sol mais que la quantité est inférieure à 0.1 mm.

Récapitulatif de la journée
Température [°C] Vent [km/h] Ensoleillement4 [h] Precipitations totale5 [mm] Pression [Hpa]
Min1 Max.2 Moy.3 Max. Min Max.
4.5 10.8 0 18.5 0 h 0 min 0 1019.1 1020.8

1 Température minimale relevée entre 18:00 UTC la veille et 18:00 UTC le jour donné.

2 Température maximale relevée entre 06:00 UTC le jour donné et 06:00 UTC le lendemain.

3 Vent moyen de la journée basé sur les relevés horaires.

4 Ensoleillement en heures relevé entre 06:00 UTC la veille et 06:00 UTC le jour donné.

5 Précipitations totales tombées entre 06:00 UTC la jour donné et 06:00 UTC le lendemain.

Graphiques horaires